createdAt,value
2017-07-21T00:00:36.720Z,17.60
2017-07-21T00:03:04.211Z,17.60
2017-07-21T00:05:31.743Z,17.60
2017-07-21T00:08:00.019Z,17.70
2017-07-21T00:10:27.553Z,17.70
2017-07-21T00:12:56.262Z,17.70
2017-07-21T00:15:23.754Z,17.70
2017-07-21T00:17:51.288Z,17.70
2017-07-21T00:20:18.793Z,17.70
2017-07-21T00:22:46.324Z,17.60
2017-07-21T00:25:13.843Z,17.70
2017-07-21T00:27:41.363Z,17.60
2017-07-21T00:30:09.279Z,17.60
2017-07-21T00:32:36.808Z,17.60
2017-07-21T00:35:04.302Z,17.50
2017-07-21T00:37:32.599Z,17.60
2017-07-21T00:40:00.104Z,17.60
2017-07-21T00:42:27.602Z,17.50
2017-07-21T00:44:55.509Z,17.50
2017-07-21T00:47:23.010Z,17.50
2017-07-21T00:49:50.920Z,17.40
2017-07-21T00:52:19.179Z,17.40
2017-07-21T00:54:46.711Z,17.30
2017-07-21T00:57:15.015Z,17.30
2017-07-21T00:59:42.532Z,17.30
2017-07-21T01:02:10.054Z,17.40
2017-07-21T01:04:37.582Z,17.40
2017-07-21T01:07:05.481Z,17.30
2017-07-21T01:09:33.012Z,17.30
2017-07-21T01:12:00.628Z,17.30
2017-07-21T01:14:28.155Z,17.30
2017-07-21T01:16:56.436Z,17.40
2017-07-21T01:19:24.334Z,17.40
2017-07-21T01:21:52.619Z,17.40
2017-07-21T01:24:20.111Z,17.30
2017-07-21T01:26:47.635Z,17.20
2017-07-21T01:29:15.128Z,17.20
2017-07-21T01:31:43.407Z,17.20
2017-07-21T01:34:11.387Z,17.20
2017-07-21T01:36:38.903Z,17.20
2017-07-21T01:39:06.399Z,17.10
2017-07-21T01:41:33.923Z,17.10
2017-07-21T01:44:01.411Z,17.10
2017-07-21T01:46:30.435Z,17.10
2017-07-21T01:48:57.927Z,17.20
2017-07-21T01:51:26.197Z,17.10
2017-07-21T01:53:53.723Z,17.00
2017-07-21T01:56:21.216Z,16.90
2017-07-21T01:58:48.772Z,16.90
2017-07-21T02:01:16.272Z,16.90
2017-07-21T02:03:43.803Z,16.80
2017-07-21T02:06:11.700Z,16.80
2017-07-21T02:08:39.220Z,16.80
2017-07-21T02:11:06.714Z,16.70
2017-07-21T02:13:35.715Z,16.80
2017-07-21T02:16:03.230Z,16.80
2017-07-21T02:18:30.730Z,16.80
2017-07-21T02:20:58.246Z,16.80
2017-07-21T02:23:25.750Z,16.80
2017-07-21T02:25:53.274Z,16.80
2017-07-21T02:28:21.919Z,16.90
2017-07-21T02:30:49.507Z,16.80
2017-07-21T02:33:17.789Z,16.70
2017-07-21T02:35:45.315Z,16.70
2017-07-21T02:38:12.813Z,16.70
2017-07-21T02:40:40.331Z,16.70
2017-07-21T02:43:07.824Z,16.80
2017-07-21T02:45:35.328Z,16.70
2017-07-21T02:48:02.859Z,16.70
2017-07-21T02:50:30.370Z,16.70
2017-07-21T02:52:58.647Z,16.60
2017-07-21T02:55:26.151Z,16.60
2017-07-21T02:57:54.440Z,16.60
2017-07-21T03:00:21.934Z,16.60
2017-07-21T03:05:18.314Z,16.60
2017-07-21T03:07:46.970Z,16.50
2017-07-21T03:10:14.507Z,16.50
2017-07-21T03:12:43.160Z,16.50
2017-07-21T03:15:10.660Z,16.50
2017-07-21T03:17:38.186Z,16.50
2017-07-21T03:20:05.700Z,16.50
2017-07-21T03:22:45.162Z,16.40
2017-07-21T03:25:12.654Z,16.40
2017-07-21T03:27:40.179Z,16.40
2017-07-21T03:30:08.476Z,16.40
2017-07-21T03:32:36.373Z,16.40
2017-07-21T03:35:03.890Z,16.40
2017-07-21T03:37:32.518Z,16.50
2017-07-21T03:40:00.799Z,16.60
2017-07-21T03:42:29.063Z,16.40
2017-07-21T03:44:56.766Z,16.40
2017-07-21T03:47:24.259Z,16.30
2017-07-21T03:49:52.180Z,16.20
2017-07-21T03:52:20.457Z,16.20
2017-07-21T03:54:47.983Z,16.20
2017-07-21T03:57:15.485Z,16.20
2017-07-21T03:59:43.011Z,16.20
2017-07-21T04:02:12.303Z,16.20
2017-07-21T04:04:39.798Z,16.10
2017-07-21T04:07:08.082Z,16.30
2017-07-21T04:12:05.299Z,16.30
2017-07-21T04:14:32.807Z,16.30
2017-07-21T04:17:00.331Z,16.20
2017-07-21T04:19:28.227Z,16.20
2017-07-21T04:21:56.138Z,16.20
2017-07-21T04:24:23.631Z,16.30
2017-07-21T04:26:51.154Z,16.30
2017-07-21T04:29:18.642Z,16.30
2017-07-21T04:31:46.164Z,16.30
2017-07-21T04:34:13.666Z,16.40
2017-07-21T04:36:41.188Z,16.50
2017-07-21T04:39:09.457Z,16.50
2017-07-21T04:41:37.907Z,16.60
2017-07-21T04:44:05.402Z,16.60
2017-07-21T04:46:34.402Z,16.70
2017-07-21T04:49:01.918Z,16.80
2017-07-21T04:51:30.212Z,16.80
2017-07-21T04:53:58.496Z,16.80
2017-07-21T04:56:26.777Z,16.80
2017-07-21T04:58:54.307Z,16.70
2017-07-21T05:01:21.807Z,16.70
2017-07-21T05:03:49.319Z,16.70
2017-07-21T05:06:16.829Z,16.70
2017-07-21T05:08:44.350Z,16.80
2017-07-21T05:11:11.847Z,16.60
2017-07-21T05:13:39.366Z,16.70
2017-07-21T05:16:07.259Z,16.70
2017-07-21T05:18:35.535Z,16.90
2017-07-21T05:21:03.063Z,17.00
2017-07-21T05:23:31.339Z,17.00
2017-07-21T05:25:58.867Z,17.00
2017-07-21T05:28:26.359Z,17.10
2017-07-21T05:30:53.879Z,17.20
2017-07-21T05:33:21.376Z,17.20
2017-07-21T05:35:48.911Z,17.30
2017-07-21T05:38:16.430Z,17.40
2017-07-21T05:40:44.358Z,17.50
2017-07-21T05:43:12.255Z,17.60
2017-07-21T05:45:41.279Z,17.60
2017-07-21T05:48:09.551Z,17.70
2017-07-21T05:50:37.074Z,17.70
2017-07-21T05:53:04.971Z,17.90
2017-07-21T05:55:33.984Z,18.10
2017-07-21T05:58:01.498Z,18.30
2017-07-21T06:00:29.767Z,18.40
2017-07-21T06:02:57.310Z,18.60
2017-07-21T06:05:25.587Z,18.70
2017-07-21T06:07:53.513Z,19.00
2017-07-21T06:10:21.022Z,19.60
2017-07-21T06:12:48.535Z,20.40
2017-07-21T06:15:16.042Z,21.10
2017-07-21T06:17:43.567Z,21.90
2017-07-21T06:20:11.120Z,22.80
2017-07-21T06:22:38.615Z,23.50
2017-07-21T06:25:06.531Z,24.20
2017-07-21T06:27:34.023Z,24.90
2017-07-21T06:30:02.312Z,25.00
2017-07-21T06:32:29.808Z,25.60
2017-07-21T06:34:57.334Z,25.90
2017-07-21T06:37:25.227Z,26.30
2017-07-21T06:39:52.718Z,26.30
2017-07-21T06:42:20.255Z,26.50
2017-07-21T06:44:48.160Z,26.70
2017-07-21T06:47:15.683Z,26.80
2017-07-21T06:49:43.178Z,27.20
2017-07-21T06:52:11.490Z,27.30
2017-07-21T06:54:39.000Z,27.00
2017-07-21T06:57:06.523Z,27.40
2017-07-21T06:59:34.019Z,27.40
2017-07-21T07:02:01.550Z,27.50
2017-07-21T07:04:29.810Z,26.90
2017-07-21T07:06:57.711Z,26.50
2017-07-21T07:09:25.643Z,26.30
2017-07-21T07:11:53.915Z,26.00
2017-07-21T07:14:21.822Z,25.90
2017-07-21T07:16:50.462Z,25.50
2017-07-21T07:19:18.008Z,25.40
2017-07-21T07:21:46.644Z,25.20
2017-07-21T07:24:14.175Z,25.50
2017-07-21T07:26:41.675Z,25.30
2017-07-21T07:29:09.290Z,25.20
2017-07-21T07:31:37.570Z,24.70
2017-07-21T07:36:35.445Z,24.60
2017-07-21T07:39:03.452Z,24.90
2017-07-21T07:41:31.717Z,24.60
2017-07-21T07:44:00.002Z,24.60
2017-07-21T07:46:27.894Z,24.20
2017-07-21T07:48:55.811Z,24.50
2017-07-21T07:51:23.372Z,24.90
2017-07-21T07:53:50.879Z,24.80
2017-07-21T07:56:18.394Z,25.30
2017-07-21T07:58:45.895Z,25.40
2017-07-21T08:01:13.408Z,25.30
2017-07-21T08:03:41.295Z,25.90
2017-07-21T08:06:08.808Z,26.20
2017-07-21T08:08:36.306Z,26.30
2017-07-21T08:11:03.837Z,25.70
2017-07-21T08:13:31.722Z,25.40
2017-07-21T08:16:00.006Z,25.30
2017-07-21T08:18:27.503Z,25.40
2017-07-21T08:20:55.395Z,25.20
2017-07-21T08:23:22.951Z,25.00
2017-07-21T08:25:50.474Z,25.10
2017-07-21T08:28:18.010Z,24.60
2017-07-21T08:30:46.659Z,24.50
2017-07-21T08:33:14.174Z,24.40
2017-07-21T08:35:41.680Z,24.50
2017-07-21T08:38:09.203Z,24.90
2017-07-21T08:40:36.697Z,25.00
2017-07-21T08:43:04.631Z,25.70
2017-07-21T08:45:32.528Z,25.90
2017-07-21T08:48:00.067Z,26.40
2017-07-21T08:50:28.328Z,26.40
2017-07-21T08:52:56.542Z,26.30
2017-07-21T08:55:24.810Z,26.70
2017-07-21T08:57:53.077Z,26.70
2017-07-21T09:00:21.355Z,26.80
2017-07-21T09:02:49.611Z,26.70
2017-07-21T09:05:17.139Z,26.90
2017-07-21T09:07:45.079Z,26.70
2017-07-21T09:10:13.000Z,26.40
2017-07-21T09:12:40.494Z,26.50
2017-07-21T09:15:08.006Z,26.90
2017-07-21T09:17:35.495Z,27.40
2017-07-21T09:20:03.011Z,27.40
2017-07-21T09:22:30.504Z,27.70
2017-07-21T09:24:58.415Z,28.10
2017-07-21T09:27:26.693Z,28.10
2017-07-21T09:29:54.208Z,28.10
2017-07-21T09:32:21.703Z,27.60
2017-07-21T09:34:49.250Z,27.60
2017-07-21T09:37:16.748Z,27.70
2017-07-21T09:39:44.458Z,27.80
2017-07-21T09:42:12.738Z,28.50
2017-07-21T09:44:40.254Z,29.00
2017-07-21T09:47:07.783Z,28.80
2017-07-21T09:49:35.295Z,29.50
2017-07-21T09:54:32.153Z,29.30
2017-07-21T09:57:00.455Z,29.60
2017-07-21T09:59:27.985Z,29.80
2017-07-21T10:01:55.551Z,29.40
2017-07-21T10:04:23.055Z,29.50
2017-07-21T10:06:50.555Z,30.10
2017-07-21T10:09:18.074Z,30.00
2017-07-21T10:11:45.570Z,29.40
2017-07-21T10:14:13.147Z,29.30
2017-07-21T10:16:41.056Z,29.60
2017-07-21T10:19:09.708Z,30.00
2017-07-21T10:21:37.203Z,30.10
2017-07-21T10:24:04.783Z,30.70
2017-07-21T10:26:32.278Z,30.70
2017-07-21T10:28:59.798Z,30.70
2017-07-21T10:31:27.304Z,30.70
2017-07-21T10:33:55.232Z,30.90
2017-07-21T10:36:22.733Z,30.60
2017-07-21T10:38:50.223Z,29.80
2017-07-21T10:41:18.879Z,29.10
2017-07-21T10:43:47.139Z,29.00
2017-07-21T10:46:15.058Z,29.00
2017-07-21T10:48:42.567Z,28.10
2017-07-21T10:51:10.095Z,27.70
2017-07-21T10:53:38.376Z,27.00
2017-07-21T10:56:06.677Z,26.70
2017-07-21T10:58:34.182Z,26.70
2017-07-21T11:08:29.030Z,26.20
2017-07-21T11:10:57.683Z,26.10
2017-07-21T11:13:25.250Z,26.20
2017-07-21T11:15:53.238Z,26.30
2017-07-21T11:18:21.523Z,26.20
2017-07-21T11:20:49.797Z,26.20
2017-07-21T11:23:18.075Z,26.30
2017-07-21T11:25:45.666Z,26.50
2017-07-21T11:28:13.194Z,26.60
2017-07-21T11:30:41.818Z,26.60
2017-07-21T11:33:09.339Z,26.60
2017-07-21T11:35:36.853Z,26.50
2017-07-21T11:38:04.386Z,26.40
2017-07-21T11:40:32.660Z,26.30
2017-07-21T11:43:00.546Z,26.20
2017-07-21T11:45:29.195Z,26.30
2017-07-21T11:47:56.706Z,26.40
2017-07-21T11:50:24.991Z,26.40
2017-07-21T11:52:52.491Z,26.50
2017-07-21T11:55:20.011Z,26.50
2017-07-21T11:57:47.503Z,26.60
2017-07-21T12:00:15.029Z,26.70
2017-07-21T12:02:42.529Z,26.70
2017-07-21T12:05:10.066Z,26.80
2017-07-21T12:07:38.328Z,26.80
2017-07-21T12:10:05.977Z,26.80
2017-07-21T12:12:33.874Z,26.70
2017-07-21T12:15:01.777Z,26.80
2017-07-21T12:17:29.299Z,26.80
2017-07-21T12:19:57.190Z,26.60
2017-07-21T12:22:24.716Z,26.70
2017-07-21T12:24:52.218Z,26.80
2017-07-21T12:27:20.511Z,26.60
2017-07-21T12:29:48.030Z,26.60
2017-07-21T12:32:15.571Z,26.60
2017-07-21T12:34:43.075Z,26.60
2017-07-21T12:37:10.600Z,26.60
2017-07-21T12:39:38.113Z,26.80
2017-07-21T12:42:05.619Z,26.90
2017-07-21T12:44:33.130Z,26.80
2017-07-21T12:47:00.627Z,26.90
2017-07-21T12:49:28.146Z,26.90
2017-07-21T12:51:55.646Z,26.90
2017-07-21T12:54:23.192Z,27.10
2017-07-21T12:56:50.682Z,27.10
2017-07-21T12:59:18.199Z,27.10
2017-07-21T13:01:46.480Z,27.10
2017-07-21T13:04:13.999Z,27.10
2017-07-21T13:06:41.493Z,27.10
2017-07-21T13:09:09.020Z,27.10
2017-07-21T13:11:37.297Z,27.10
2017-07-21T13:14:05.574Z,27.10
2017-07-21T13:16:33.853Z,26.90
2017-07-21T13:19:02.127Z,27.00
2017-07-21T13:21:30.047Z,27.20
2017-07-21T13:23:58.310Z,27.20
2017-07-21T13:26:25.835Z,27.40
2017-07-21T13:28:53.331Z,27.30
2017-07-21T13:31:21.644Z,27.20
2017-07-21T13:33:49.919Z,27.20
2017-07-21T13:36:18.295Z,27.30
2017-07-21T13:38:45.788Z,27.30
2017-07-21T13:41:14.090Z,27.40
2017-07-21T13:43:41.619Z,27.40
2017-07-21T13:46:09.159Z,27.30
2017-07-21T13:48:37.587Z,27.20
2017-07-21T13:51:05.119Z,27.10
2017-07-21T13:53:32.614Z,27.10
2017-07-21T13:56:00.906Z,27.00
2017-07-21T13:58:28.414Z,27.10
2017-07-21T14:00:55.906Z,27.10
2017-07-21T14:03:24.561Z,27.10
2017-07-21T14:05:52.091Z,27.10
2017-07-21T14:08:19.615Z,27.10
2017-07-21T14:10:47.130Z,27.00
2017-07-21T14:13:14.639Z,27.00
2017-07-21T14:15:42.215Z,27.00
2017-07-21T14:18:10.499Z,27.00
2017-07-21T14:20:37.991Z,27.00
2017-07-21T14:23:05.519Z,26.90
2017-07-21T14:25:33.421Z,26.90
2017-07-21T14:28:01.726Z,26.70
2017-07-21T14:30:29.214Z,26.70
2017-07-21T14:32:58.243Z,26.60
2017-07-21T14:35:26.519Z,26.70
2017-07-21T14:37:54.055Z,26.70
2017-07-21T14:40:21.575Z,26.70
2017-07-21T14:42:49.094Z,26.60
2017-07-21T14:45:16.635Z,26.60
2017-07-21T14:47:44.931Z,26.60
2017-07-21T14:50:12.463Z,26.60
2017-07-21T14:52:41.089Z,26.60
2017-07-21T14:55:08.615Z,26.60
2017-07-21T14:57:36.128Z,26.40
2017-07-21T15:00:04.044Z,26.40
2017-07-21T15:02:31.542Z,26.50
2017-07-21T15:04:59.061Z,26.30
2017-07-21T15:07:27.330Z,26.10
2017-07-21T15:09:54.856Z,26.00
2017-07-21T15:12:23.862Z,26.00
2017-07-21T15:14:51.783Z,26.00
2017-07-21T15:17:19.679Z,25.90
2017-07-21T15:19:47.574Z,25.80
2017-07-21T15:22:16.222Z,25.90
2017-07-21T15:24:44.858Z,26.20
2017-07-21T15:27:12.775Z,26.40
2017-07-21T15:29:40.287Z,26.70
2017-07-21T15:32:07.818Z,26.80
2017-07-21T15:34:35.311Z,26.80
2017-07-21T15:37:02.828Z,26.90
2017-07-21T15:39:30.322Z,26.80
2017-07-21T15:41:57.840Z,26.60
2017-07-21T15:44:26.098Z,26.50
2017-07-21T15:46:54.031Z,26.60
2017-07-21T15:49:21.919Z,26.50
2017-07-21T15:51:49.546Z,26.60
2017-07-21T15:54:17.062Z,26.60
2017-07-21T15:56:45.353Z,26.40
2017-07-21T15:59:14.389Z,26.50
2017-07-21T16:01:41.887Z,26.40
2017-07-21T16:04:09.407Z,26.30
2017-07-21T16:06:36.921Z,26.40
2017-07-21T16:09:04.431Z,26.40
2017-07-21T16:11:31.926Z,26.40
2017-07-21T16:14:00.212Z,26.40
2017-07-21T16:16:27.723Z,26.40
2017-07-21T16:18:55.257Z,26.40
2017-07-21T16:21:23.423Z,26.30
2017-07-21T16:23:51.687Z,26.30
2017-07-21T16:26:19.604Z,26.10
2017-07-21T16:28:47.883Z,26.00
2017-07-21T16:31:16.561Z,26.00
2017-07-21T16:33:45.678Z,26.00
2017-07-21T16:36:13.187Z,25.90
2017-07-21T16:38:40.695Z,25.90
2017-07-21T16:41:08.223Z,25.90
2017-07-21T16:43:35.718Z,25.90
2017-07-21T16:46:03.398Z,25.90
2017-07-21T16:48:30.904Z,25.90
2017-07-21T16:50:58.411Z,25.90
2017-07-21T16:53:27.054Z,26.10
2017-07-21T16:55:54.574Z,26.10
2017-07-21T16:58:22.071Z,26.00
2017-07-21T17:00:49.585Z,25.90
2017-07-21T17:03:17.095Z,25.80
2017-07-21T17:05:45.367Z,25.70
2017-07-21T17:08:13.643Z,25.70
2017-07-21T17:10:41.917Z,25.60
2017-07-21T17:13:10.939Z,25.50
2017-07-21T17:15:38.439Z,25.40
2017-07-21T17:18:05.963Z,25.40
2017-07-21T17:20:33.467Z,25.30
2017-07-21T17:23:00.978Z,25.20
2017-07-21T17:25:28.474Z,25.20
2017-07-21T17:27:56.758Z,25.10
2017-07-21T17:30:25.030Z,25.00
2017-07-21T17:32:53.324Z,25.10
2017-07-21T17:35:21.583Z,25.10
2017-07-21T17:37:49.083Z,25.00
2017-07-21T17:40:17.005Z,24.90
2017-07-21T17:42:44.526Z,24.90
2017-07-21T17:45:12.598Z,24.80
2017-07-21T17:47:40.106Z,24.60
2017-07-21T17:50:08.027Z,24.60
2017-07-21T17:52:35.527Z,24.60
2017-07-21T17:55:03.057Z,24.60
2017-07-21T17:57:30.569Z,24.50
2017-07-21T17:59:58.850Z,24.60
2017-07-21T18:02:26.743Z,24.60
2017-07-21T18:07:23.116Z,24.40
2017-07-21T18:09:50.659Z,24.40
2017-07-21T18:12:18.555Z,24.40
2017-07-21T18:14:46.089Z,24.40
2017-07-21T18:17:13.591Z,24.40
2017-07-21T18:19:41.094Z,24.30
2017-07-21T18:22:09.383Z,24.30
2017-07-21T18:24:36.880Z,24.30
2017-07-21T18:27:04.395Z,24.20
2017-07-21T18:29:31.884Z,24.20
2017-07-21T18:31:59.806Z,24.20
2017-07-21T18:34:28.070Z,24.20
2017-07-21T18:36:56.006Z,24.20
2017-07-21T18:41:53.161Z,24.10
2017-07-21T18:44:20.707Z,24.00
2017-07-21T18:46:48.230Z,23.80
2017-07-21T18:49:15.746Z,23.70
2017-07-21T18:51:43.275Z,23.50
2017-07-21T18:54:10.771Z,23.40
2017-07-21T18:56:38.290Z,23.20
2017-07-21T18:59:05.830Z,23.30
2017-07-21T19:01:34.098Z,23.30
2017-07-21T19:04:01.614Z,23.30
2017-07-21T19:06:29.112Z,23.40
2017-07-21T19:08:56.646Z,23.30
2017-07-21T19:11:24.547Z,23.40
2017-07-21T19:13:52.454Z,23.50
2017-07-21T19:16:19.946Z,23.50
2017-07-21T19:18:47.476Z,23.50
2017-07-21T19:21:14.970Z,23.60
2017-07-21T19:23:43.230Z,23.40
2017-07-21T19:26:10.747Z,23.30
2017-07-21T19:28:38.252Z,23.20
2017-07-21T19:31:05.768Z,23.10
2017-07-21T19:33:33.264Z,23.10
2017-07-21T19:36:00.786Z,23.10
2017-07-21T19:38:28.282Z,23.00
2017-07-21T19:40:56.615Z,23.00
2017-07-21T19:43:24.146Z,23.00
2017-07-21T19:45:52.062Z,22.90
2017-07-21T19:48:19.570Z,23.00
2017-07-21T19:50:47.096Z,23.10
2017-07-21T19:53:15.730Z,23.00
2017-07-21T19:55:43.242Z,22.80
2017-07-21T19:58:11.562Z,22.60
2017-07-21T20:00:39.081Z,22.50
2017-07-21T20:03:06.991Z,22.40
2017-07-21T20:05:34.504Z,22.20
2017-07-21T20:08:02.028Z,22.00
2017-07-21T20:10:29.538Z,21.90
2017-07-21T20:12:57.061Z,21.60
2017-07-21T20:15:25.328Z,21.50
2017-07-21T20:17:54.398Z,21.40
2017-07-21T20:20:22.663Z,21.30
2017-07-21T20:22:51.691Z,21.20
2017-07-21T20:25:20.323Z,21.00
2017-07-21T20:27:47.844Z,20.90
2017-07-21T20:30:15.375Z,20.70
2017-07-21T20:32:43.266Z,20.60
2017-07-21T20:35:10.795Z,20.50
2017-07-21T20:37:38.296Z,20.50
2017-07-21T20:40:05.820Z,20.30
2017-07-21T20:42:33.333Z,20.20
2017-07-21T20:45:00.864Z,20.20
2017-07-21T20:47:28.362Z,20.10
2017-07-21T20:49:56.667Z,20.10
2017-07-21T20:52:24.162Z,20.10
2017-07-21T20:54:51.695Z,20.10
2017-07-21T20:57:19.204Z,20.20
2017-07-21T20:59:47.090Z,20.40
2017-07-21T21:02:15.375Z,20.60
2017-07-21T21:04:42.879Z,20.70
2017-07-21T21:07:10.400Z,20.70
2017-07-21T21:09:37.895Z,20.80
2017-07-21T21:12:05.815Z,20.70
2017-07-21T21:14:33.318Z,20.70
2017-07-21T21:17:00.857Z,20.50
2017-07-21T21:19:28.358Z,20.40
2017-07-21T21:21:55.898Z,20.20
2017-07-21T21:24:23.426Z,20.10
2017-07-21T21:26:50.936Z,20.00
2017-07-21T21:29:18.427Z,20.00
2017-07-21T21:31:46.338Z,20.10
2017-07-21T21:34:13.868Z,20.00
2017-07-21T21:36:42.245Z,19.80
2017-07-21T21:39:09.743Z,19.90
2017-07-21T21:41:37.266Z,19.90
2017-07-21T21:44:05.554Z,20.00
2017-07-21T21:46:33.857Z,20.10
2017-07-21T21:49:01.407Z,20.10
2017-07-21T21:51:28.907Z,20.30
2017-07-21T21:53:57.235Z,20.30
2017-07-21T21:56:24.763Z,20.30
2017-07-21T21:58:52.306Z,20.30
2017-07-21T22:01:19.815Z,20.30
2017-07-21T22:03:48.103Z,20.40
2017-07-21T22:06:15.752Z,20.40
2017-07-21T22:08:43.289Z,20.40
2017-07-21T22:11:11.295Z,20.50
2017-07-21T22:13:38.811Z,20.50
2017-07-21T22:16:06.363Z,20.50
2017-07-21T22:18:34.367Z,20.50
2017-07-21T22:21:01.877Z,20.50
2017-07-21T22:23:30.152Z,20.50
2017-07-21T22:25:57.717Z,20.50
2017-07-21T22:28:25.230Z,20.50
2017-07-21T22:30:52.813Z,20.50
2017-07-21T22:33:20.307Z,20.50
2017-07-21T22:35:48.638Z,20.50
2017-07-21T22:38:16.219Z,20.60
2017-07-21T22:40:43.760Z,20.60
2017-07-21T22:43:11.699Z,20.60
2017-07-21T22:45:39.650Z,20.60
2017-07-21T22:48:07.155Z,20.60
2017-07-21T22:50:34.729Z,20.60
2017-07-21T22:53:02.233Z,20.60
2017-07-21T22:55:29.776Z,20.60
2017-07-21T22:57:57.675Z,20.60
2017-07-21T23:00:25.166Z,20.60
2017-07-21T23:02:52.699Z,20.50
2017-07-21T23:05:20.190Z,20.50
2017-07-21T23:07:47.716Z,20.50
2017-07-21T23:10:15.984Z,20.50
2017-07-21T23:12:45.006Z,20.60
2017-07-21T23:15:12.544Z,20.60
2017-07-21T23:17:40.071Z,20.60
2017-07-21T23:20:07.589Z,20.70
2017-07-21T23:22:35.135Z,20.70
2017-07-21T23:25:02.635Z,20.70
2017-07-21T23:27:30.545Z,20.70
2017-07-21T23:29:58.058Z,20.70
2017-07-21T23:32:26.379Z,20.70
2017-07-21T23:34:54.280Z,20.70
2017-07-21T23:37:22.546Z,20.80
2017-07-21T23:39:50.830Z,20.70
2017-07-21T23:42:19.088Z,20.70
2017-07-21T23:44:47.009Z,20.70
2017-07-21T23:47:15.390Z,20.70
2017-07-21T23:49:43.295Z,20.70
2017-07-21T23:52:10.814Z,20.80
2017-07-21T23:54:38.331Z,20.80
2017-07-21T23:57:05.838Z,20.70
2017-07-21T23:59:33.354Z,20.70
